sensor_id;sensor_type;location;lat;lon;timestamp;temperature;humidity
16801;DHT22;8518;53.236;10.384;2023-03-11T00:01:48;1.20;99.90
16801;DHT22;8518;53.236;10.384;2023-03-11T00:04:14;0.60;99.90
16801;DHT22;8518;53.236;10.384;2023-03-11T00:06:40;1.30;99.90
16801;DHT22;8518;53.236;10.384;2023-03-11T00:09:08;0.60;99.90
16801;DHT22;8518;53.236;10.384;2023-03-11T00:11:37;0.70;99.90
16801;DHT22;8518;53.236;10.384;2023-03-11T00:14:02;0.00;99.90
16801;DHT22;8518;53.236;10.384;2023-03-11T00:16:31;0.60;99.90
16801;DHT22;8518;53.236;10.384;2023-03-11T00:18:57;0.70;99.90
16801;DHT22;8518;53.236;10.384;2023-03-11T00:21:22;0.60;99.90
16801;DHT22;8518;53.236;10.384;2023-03-11T00:27:10;0.60;99.90
16801;DHT22;8518;53.236;10.384;2023-03-11T00:29:46;1.70;99.90
16801;DHT22;8518;53.236;10.384;2023-03-11T00:32:15;0.70;99.90
16801;DHT22;8518;53.236;10.384;2023-03-11T00:34:40;0.70;99.90
16801;DHT22;8518;53.236;10.384;2023-03-11T00:37:09;1.70;99.90
16801;DHT22;8518;53.236;10.384;2023-03-11T00:39:40;2.10;99.90
16801;DHT22;8518;53.236;10.384;2023-03-11T00:45:29;0.70;99.90
16801;DHT22;8518;53.236;10.384;2023-03-11T00:51:21;0.70;99.90
16801;DHT22;8518;53.236;10.384;2023-03-11T00:57:08;0.60;99.90
16801;DHT22;8518;53.236;10.384;2023-03-11T01:02:57;0.60;99.90
16801;DHT22;8518;53.236;10.384;2023-03-11T01:05:28;0.60;99.90
16801;DHT22;8518;53.236;10.384;2023-03-11T01:07:54;0.60;99.90
16801;DHT22;8518;53.236;10.384;2023-03-11T01:10:20;1.60;99.90
16801;DHT22;8518;53.236;10.384;2023-03-11T01:16:08;0.60;99.90
16801;DHT22;8518;53.236;10.384;2023-03-11T01:18:33;0.60;99.90
16801;DHT22;8518;53.236;10.384;2023-03-11T01:20:59;1.10;99.90
16801;DHT22;8518;53.236;10.384;2023-03-11T01:26:50;0.60;99.90
16801;DHT22;8518;53.236;10.384;2023-03-11T01:32:43;0.60;99.90
16801;DHT22;8518;53.236;10.384;2023-03-11T01:35:17;0.60;99.90
16801;DHT22;8518;53.236;10.384;2023-03-11T01:37:46;0.70;99.90
16801;DHT22;8518;53.236;10.384;2023-03-11T01:40:36;0.70;99.90
16801;DHT22;8518;53.236;10.384;2023-03-11T01:46:27;0.70;99.90
16801;DHT22;8518;53.236;10.384;2023-03-11T01:49:04;2.00;99.90
16801;DHT22;8518;53.236;10.384;2023-03-11T01:51:40;0.60;99.90
16801;DHT22;8518;53.236;10.384;2023-03-11T01:54:11;0.70;99.90
16801;DHT22;8518;53.236;10.384;2023-03-11T01:56:51;1.00;99.90
16801;DHT22;8518;53.236;10.384;2023-03-11T01:59:21;1.70;99.90
16801;DHT22;8518;53.236;10.384;2023-03-11T02:04:44;0.70;99.90
16801;DHT22;8518;53.236;10.384;2023-03-11T02:07:11;0.70;99.90
16801;DHT22;8518;53.236;10.384;2023-03-11T02:09:38;0.80;99.90
16801;DHT22;8518;53.236;10.384;2023-03-11T02:15:26;0.80;99.90
16801;DHT22;8518;53.236;10.384;2023-03-11T02:17:52;1.10;99.90
16801;DHT22;8518;53.236;10.384;2023-03-11T02:27:11;0.70;99.90
16801;DHT22;8518;53.236;10.384;2023-03-11T02:29:39;0.70;99.90
16801;DHT22;8518;53.236;10.384;2023-03-11T02:32:12;0.60;99.90
16801;DHT22;8518;53.236;10.384;2023-03-11T02:34:46;1.90;99.90
16801;DHT22;8518;53.236;10.384;2023-03-11T02:37:16;0.60;99.90
16801;DHT22;8518;53.236;10.384;2023-03-11T02:39:45;1.20;99.90
16801;DHT22;8518;53.236;10.384;2023-03-11T02:45:36;0.70;99.90
16801;DHT22;8518;53.236;10.384;2023-03-11T02:51:29;0.70;99.90
16801;DHT22;8518;53.236;10.384;2023-03-11T02:57:17;0.80;99.90
16801;DHT22;8518;53.236;10.384;2023-03-11T03:03:12;0.50;99.90
16801;DHT22;8518;53.236;10.384;2023-03-11T03:05:40;0.80;99.90
16801;DHT22;8518;53.236;10.384;2023-03-11T03:08:08;0.80;99.90
16801;DHT22;8518;53.236;10.384;2023-03-11T03:10:34;0.80;99.90
16801;DHT22;8518;53.236;10.384;2023-03-11T03:16:24;0.90;99.90
16801;DHT22;8518;53.236;10.384;2023-03-11T03:25:43;0.80;99.90
16801;DHT22;8518;53.236;10.384;2023-03-11T03:31:32;0.80;99.90
16801;DHT22;8518;53.236;10.384;2023-03-11T03:34:00;0.70;99.90
16801;DHT22;8518;53.236;10.384;2023-03-11T03:36:26;1.20;99.90
16801;DHT22;8518;53.236;10.384;2023-03-11T03:39:10;1.70;99.90
16801;DHT22;8518;53.236;10.384;2023-03-11T03:41:59;0.80;99.90
16801;DHT22;8518;53.236;10.384;2023-03-11T03:44:28;0.70;99.90
16801;DHT22;8518;53.236;10.384;2023-03-11T03:46:54;0.50;99.90
16801;DHT22;8518;53.236;10.384;2023-03-11T03:49:23;0.70;99.90
16801;DHT22;8518;53.236;10.384;2023-03-11T03:51:52;0.70;99.90
16801;DHT22;8518;53.236;10.384;2023-03-11T03:54:20;0.70;99.90
16801;DHT22;8518;53.236;10.384;2023-03-11T03:56:46;0.60;99.90
16801;DHT22;8518;53.236;10.384;2023-03-11T03:59:14;0.60;99.90
16801;DHT22;8518;53.236;10.384;2023-03-11T04:01:46;0.60;99.90
16801;DHT22;8518;53.236;10.384;2023-03-11T04:04:13;0.60;99.90
16801;DHT22;8518;53.236;10.384;2023-03-11T04:06:48;0.60;99.90
16801;DHT22;8518;53.236;10.384;2023-03-11T04:09:17;0.30;99.90
16801;DHT22;8518;53.236;10.384;2023-03-11T04:11:48;0.50;99.90
16801;DHT22;8518;53.236;10.384;2023-03-11T04:14:17;0.60;99.90
16801;DHT22;8518;53.236;10.384;2023-03-11T04:16:45;0.70;99.90
16801;DHT22;8518;53.236;10.384;2023-03-11T04:19:17;0.60;99.90
16801;DHT22;8518;53.236;10.384;2023-03-11T04:21:42;0.70;99.90
16801;DHT22;8518;53.236;10.384;2023-03-11T04:24:17;0.60;99.90
16801;DHT22;8518;53.236;10.384;2023-03-11T04:26:53;0.40;99.90
16801;DHT22;8518;53.236;10.384;2023-03-11T04:29:22;0.80;99.90
16801;DHT22;8518;53.236;10.384;2023-03-11T04:31:48;0.50;99.90
16801;DHT22;8518;53.236;10.384;2023-03-11T04:34:16;0.60;99.90
16801;DHT22;8518;53.236;10.384;2023-03-11T04:36:41;0.60;99.90
16801;DHT22;8518;53.236;10.384;2023-03-11T04:39:16;1.60;99.90
16801;DHT22;8518;53.236;10.384;2023-03-11T04:41:42;0.50;99.90
16801;DHT22;8518;53.236;10.384;2023-03-11T04:44:27;0.50;99.90
16801;DHT22;8518;53.236;10.384;2023-03-11T04:47:02;0.50;99.90
16801;DHT22;8518;53.236;10.384;2023-03-11T04:49:27;0.40;99.90
16801;DHT22;8518;53.236;10.384;2023-03-11T04:52:02;0.40;99.90
16801;DHT22;8518;53.236;10.384;2023-03-11T04:54:36;0.40;99.90
16801;DHT22;8518;53.236;10.384;2023-03-11T04:57:03;0.60;99.90
16801;DHT22;8518;53.236;10.384;2023-03-11T04:59:29;0.50;99.90
16801;DHT22;8518;53.236;10.384;2023-03-11T05:01:59;0.50;99.90
16801;DHT22;8518;53.236;10.384;2023-03-11T05:04:36;0.40;99.90
16801;DHT22;8518;53.236;10.384;2023-03-11T05:07:06;1.30;99.90
16801;DHT22;8518;53.236;10.384;2023-03-11T05:09:40;1.00;99.90
16801;DHT22;8518;53.236;10.384;2023-03-11T05:15:28;0.20;99.90
16801;DHT22;8518;53.236;10.384;2023-03-11T05:21:17;0.30;99.90
16801;DHT22;8518;53.236;10.384;2023-03-11T05:27:10;0.30;99.90
16801;DHT22;8518;53.236;10.384;2023-03-11T05:29:44;0.40;99.90
16801;DHT22;8518;53.236;10.384;2023-03-11T05:35:33;0.40;99.90
16801;DHT22;8518;53.236;10.384;2023-03-11T05:41:28;0.40;99.90
16801;DHT22;8518;53.236;10.384;2023-03-11T05:47:17;0.40;99.90
16801;DHT22;8518;53.236;10.384;2023-03-11T05:53:20;0.50;99.90
16801;DHT22;8518;53.236;10.384;2023-03-11T05:56:22;0.40;99.90
16801;DHT22;8518;53.236;10.384;2023-03-11T05:58:58;0.30;99.90
16801;DHT22;8518;53.236;10.384;2023-03-11T06:01:29;0.70;99.90
16801;DHT22;8518;53.236;10.384;2023-03-11T06:03:58;0.40;99.90
16801;DHT22;8518;53.236;10.384;2023-03-11T06:06:28;0.30;99.90
16801;DHT22;8518;53.236;10.384;2023-03-11T06:08:59;0.20;99.90
16801;DHT22;8518;53.236;10.384;2023-03-11T06:11:53;0.10;99.90
16801;DHT22;8518;53.236;10.384;2023-03-11T06:14:22;-0.10;99.90
16801;DHT22;8518;53.236;10.384;2023-03-11T06:16:57;0.90;99.90
16801;DHT22;8518;53.236;10.384;2023-03-11T06:19:26;0.10;99.90
16801;DHT22;8518;53.236;10.384;2023-03-11T06:21:57;0.00;99.90
16801;DHT22;8518;53.236;10.384;2023-03-11T06:24:25;0.30;99.90
16801;DHT22;8518;53.236;10.384;2023-03-11T06:26:54;0.30;99.90
16801;DHT22;8518;53.236;10.384;2023-03-11T06:29:28;0.50;99.90
16801;DHT22;8518;53.236;10.384;2023-03-11T06:31:57;0.50;99.90
16801;DHT22;8518;53.236;10.384;2023-03-11T06:34:32;0.50;99.90
16801;DHT22;8518;53.236;10.384;2023-03-11T06:37:06;1.50;99.90
16801;DHT22;8518;53.236;10.384;2023-03-11T06:39:37;0.50;99.90
16801;DHT22;8518;53.236;10.384;2023-03-11T06:45:31;0.90;99.90
16801;DHT22;8518;53.236;10.384;2023-03-11T06:48:00;0.90;99.90
16801;DHT22;8518;53.236;10.384;2023-03-11T06:50:32;0.90;99.90
16801;DHT22;8518;53.236;10.384;2023-03-11T06:56:24;1.20;99.90
16801;DHT22;8518;53.236;10.384;2023-03-11T06:58:56;1.50;99.90
16801;DHT22;8518;53.236;10.384;2023-03-11T07:01:23;1.60;99.90
16801;DHT22;8518;53.236;10.384;2023-03-11T07:07:12;2.30;99.90
16801;DHT22;8518;53.236;10.384;2023-03-11T07:09:40;3.50;99.90
16801;DHT22;8518;53.236;10.384;2023-03-11T07:15:28;4.10;99.90
16801;DHT22;8518;53.236;10.384;2023-03-11T07:21:19;5.60;99.90
16801;DHT22;8518;53.236;10.384;2023-03-11T07:27:07;7.50;99.90
16801;DHT22;8518;53.236;10.384;2023-03-11T07:29:32;8.60;99.90
16801;DHT22;8518;53.236;10.384;2023-03-11T07:35:34;11.00;99.90
16801;DHT22;8518;53.236;10.384;2023-03-11T07:38:03;12.40;99.90
16801;DHT22;8518;53.236;10.384;2023-03-11T07:40:29;13.40;97.80
16801;DHT22;8518;53.236;10.384;2023-03-11T07:46:17;15.30;90.80
16801;DHT22;8518;53.236;10.384;2023-03-11T07:48:45;15.10;87.90
16801;DHT22;8518;53.236;10.384;2023-03-11T07:51:14;15.30;87.00
16801;DHT22;8518;53.236;10.384;2023-03-11T07:57:02;13.90;88.00
16801;DHT22;8518;53.236;10.384;2023-03-11T08:02:51;14.30;90.20
16801;DHT22;8518;53.236;10.384;2023-03-11T08:05:19;14.70;85.00
16801;DHT22;8518;53.236;10.384;2023-03-11T08:07:51;13.70;87.00
16801;DHT22;8518;53.236;10.384;2023-03-11T08:10:17;12.80;91.30
16801;DHT22;8518;53.236;10.384;2023-03-11T08:16:06;11.90;93.40
16801;DHT22;8518;53.236;10.384;2023-03-11T08:18:33;10.70;96.00
16801;DHT22;8518;53.236;10.384;2023-03-11T08:21:12;10.90;98.30
16801;DHT22;8518;53.236;10.384;2023-03-11T08:27:03;15.10;89.70
16801;DHT22;8518;53.236;10.384;2023-03-11T08:29:29;16.80;80.90
16801;DHT22;8518;53.236;10.384;2023-03-11T08:32:01;17.50;75.50
16801;DHT22;8518;53.236;10.384;2023-03-11T08:34:27;18.60;70.70
16801;DHT22;8518;53.236;10.384;2023-03-11T08:37:00;19.50;63.90
16801;DHT22;8518;53.236;10.384;2023-03-11T08:39:31;19.80;60.70
16801;DHT22;8518;53.236;10.384;2023-03-11T08:41:56;20.50;58.70
16801;DHT22;8518;53.236;10.384;2023-03-11T08:44:24;20.20;56.60
16801;DHT22;8518;53.236;10.384;2023-03-11T08:46:49;20.80;55.40
16801;DHT22;8518;53.236;10.384;2023-03-11T08:49:15;21.50;54.00
16801;DHT22;8518;53.236;10.384;2023-03-11T08:51:40;22.90;51.80
16801;DHT22;8518;53.236;10.384;2023-03-11T08:54:07;24.20;47.50
16801;DHT22;8518;53.236;10.384;2023-03-11T08:56:32;24.70;45.30
16801;DHT22;8518;53.236;10.384;2023-03-11T08:58:58;25.30;43.50
16801;DHT22;8518;53.236;10.384;2023-03-11T09:01:24;25.90;41.50
16801;DHT22;8518;53.236;10.384;2023-03-11T09:07:12;26.00;38.00
16801;DHT22;8518;53.236;10.384;2023-03-11T09:09:38;25.00;38.60
16801;DHT22;8518;53.236;10.384;2023-03-11T09:15:26;25.90;37.50
16801;DHT22;8518;53.236;10.384;2023-03-11T09:17:53;26.30;37.30
16801;DHT22;8518;53.236;10.384;2023-03-11T09:20:19;26.00;36.70
16801;DHT22;8518;53.236;10.384;2023-03-11T09:26:07;26.90;36.20
16801;DHT22;8518;53.236;10.384;2023-03-11T09:28:32;27.50;34.30
16801;DHT22;8518;53.236;10.384;2023-03-11T09:30:59;27.30;33.90
16801;DHT22;8518;53.236;10.384;2023-03-11T09:36:47;27.60;33.40
16801;DHT22;8518;53.236;10.384;2023-03-11T09:42:52;27.90;32.40
16801;DHT22;8518;53.236;10.384;2023-03-11T09:45:27;28.50;32.20
16801;DHT22;8518;53.236;10.384;2023-03-11T09:50:47;29.30;31.20
16801;DHT22;8518;53.236;10.384;2023-03-11T09:56:41;30.70;29.90
16801;DHT22;8518;53.236;10.384;2023-03-11T09:59:33;30.60;28.70
16801;DHT22;8518;53.236;10.384;2023-03-11T10:05:26;29.50;29.20
16801;DHT22;8518;53.236;10.384;2023-03-11T10:20:59;31.00;27.90
16801;DHT22;8518;53.236;10.384;2023-03-11T10:36:50;30.50;27.40
16801;DHT22;8518;53.236;10.384;2023-03-11T10:39:38;31.50;27.20
16801;DHT22;8518;53.236;10.384;2023-03-11T10:45:28;29.70;27.00
16801;DHT22;8518;53.236;10.384;2023-03-11T10:47:56;29.70;26.60
16801;DHT22;8518;53.236;10.384;2023-03-11T10:50:23;29.50;27.30
16801;DHT22;8518;53.236;10.384;2023-03-11T11:02:30;30.80;27.10
16801;DHT22;8518;53.236;10.384;2023-03-11T11:05:27;31.20;26.20
16801;DHT22;8518;53.236;10.384;2023-03-11T11:08:17;30.70;26.20
16801;DHT22;8518;53.236;10.384;2023-03-11T11:10:58;31.40;26.20
16801;DHT22;8518;53.236;10.384;2023-03-11T11:16:50;30.10;26.30
16801;DHT22;8518;53.236;10.384;2023-03-11T11:19:18;29.80;26.10
16801;DHT22;8518;53.236;10.384;2023-03-11T11:21:48;29.70;26.80
16801;DHT22;8518;53.236;10.384;2023-03-11T11:24:30;30.30;26.50
16801;DHT22;8518;53.236;10.384;2023-03-11T11:35:50;29.30;27.20
16801;DHT22;8518;53.236;10.384;2023-03-11T11:38:16;30.30;27.00
16801;DHT22;8518;53.236;10.384;2023-03-11T11:40:42;30.80;26.90
16801;DHT22;8518;53.236;10.384;2023-03-11T11:46:44;30.50;26.80
16801;DHT22;8518;53.236;10.384;2023-03-11T11:49:22;30.60;27.00
16801;DHT22;8518;53.236;10.384;2023-03-11T11:55:25;31.40;26.50
16801;DHT22;8518;53.236;10.384;2023-03-11T11:57:51;31.60;25.80
16801;DHT22;8518;53.236;10.384;2023-03-11T12:00:23;31.10;26.00
16801;DHT22;8518;53.236;10.384;2023-03-11T12:15:28;27.40;28.40
16801;DHT22;8518;53.236;10.384;2023-03-11T12:18:05;28.30;28.40
16801;DHT22;8518;53.236;10.384;2023-03-11T12:20:48;28.60;27.80
16801;DHT22;8518;53.236;10.384;2023-03-11T12:26:41;27.10;28.20
16801;DHT22;8518;53.236;10.384;2023-03-11T12:36:16;28.20;28.00
16801;DHT22;8518;53.236;10.384;2023-03-11T12:38:51;29.40;27.80
16801;DHT22;8518;53.236;10.384;2023-03-11T12:41:37;29.00;27.10
16801;DHT22;8518;53.236;10.384;2023-03-11T12:44:27;28.40;27.20
16801;DHT22;8518;53.236;10.384;2023-03-11T12:49:31;27.90;27.70
16801;DHT22;8518;53.236;10.384;2023-03-11T12:55:29;28.80;27.60
16801;DHT22;8518;53.236;10.384;2023-03-11T12:58:20;27.70;27.00
16801;DHT22;8518;53.236;10.384;2023-03-11T13:01:04;26.30;28.60
16801;DHT22;8518;53.236;10.384;2023-03-11T13:13:43;24.20;29.90
16801;DHT22;8518;53.236;10.384;2023-03-11T13:18:45;24.60;31.10
16801;DHT22;8518;53.236;10.384;2023-03-11T13:27:27;21.80;33.10
16801;DHT22;8518;53.236;10.384;2023-03-11T13:30:32;21.40;34.20
16801;DHT22;8518;53.236;10.384;2023-03-11T13:33:20;20.20;35.00
16801;DHT22;8518;53.236;10.384;2023-03-11T13:36:18;20.40;35.40
16801;DHT22;8518;53.236;10.384;2023-03-11T13:39:12;20.00;36.10
16801;DHT22;8518;53.236;10.384;2023-03-11T13:41:42;21.10;35.90
16801;DHT22;8518;53.236;10.384;2023-03-11T13:44:23;21.60;35.20
16801;DHT22;8518;53.236;10.384;2023-03-11T13:47:14;21.10;35.00
16801;DHT22;8518;53.236;10.384;2023-03-11T13:55:49;15.00;41.90
16801;DHT22;8518;53.236;10.384;2023-03-11T14:01:37;14.60;45.90
16801;DHT22;8518;53.236;10.384;2023-03-11T14:04:10;15.10;46.50
16801;DHT22;8518;53.236;10.384;2023-03-11T14:06:36;15.60;46.40
16801;DHT22;8518;53.236;10.384;2023-03-11T14:09:01;16.40;45.90
16801;DHT22;8518;53.236;10.384;2023-03-11T14:11:28;16.30;45.00
16801;DHT22;8518;53.236;10.384;2023-03-11T14:17:18;14.70;46.10
16801;DHT22;8518;53.236;10.384;2023-03-11T14:23:17;12.90;49.10
16801;DHT22;8518;53.236;10.384;2023-03-11T14:25:43;13.50;53.10
16801;DHT22;8518;53.236;10.384;2023-03-11T14:31:23;13.30;55.60
16801;DHT22;8518;53.236;10.384;2023-03-11T14:37:37;11.20;60.00
16801;DHT22;8518;53.236;10.384;2023-03-11T14:40:30;10.90;65.00
16801;DHT22;8518;53.236;10.384;2023-03-11T14:43:02;10.50;67.30
16801;DHT22;8518;53.236;10.384;2023-03-11T14:45:31;10.10;72.40
16801;DHT22;8518;53.236;10.384;2023-03-11T14:50:35;10.10;75.10
16801;DHT22;8518;53.236;10.384;2023-03-11T14:56:24;10.00;78.40
16801;DHT22;8518;53.236;10.384;2023-03-11T15:01:41;9.20;83.10
16801;DHT22;8518;53.236;10.384;2023-03-11T15:04:16;10.40;88.10
16801;DHT22;8518;53.236;10.384;2023-03-11T15:06:49;8.60;89.20
16801;DHT22;8518;53.236;10.384;2023-03-11T15:09:18;9.30;91.40
16801;DHT22;8518;53.236;10.384;2023-03-11T15:11:55;8.70;93.00
16801;DHT22;8518;53.236;10.384;2023-03-11T15:19:34;8.00;95.80
16801;DHT22;8518;53.236;10.384;2023-03-11T15:25:24;7.50;97.10
16801;DHT22;8518;53.236;10.384;2023-03-11T15:27:49;7.50;98.40
16801;DHT22;8518;53.236;10.384;2023-03-11T15:30:19;7.40;98.80
16801;DHT22;8518;53.236;10.384;2023-03-11T15:36:38;6.80;99.90
16801;DHT22;8518;53.236;10.384;2023-03-11T15:39:20;6.70;99.90
16801;DHT22;8518;53.236;10.384;2023-03-11T15:42:00;6.40;99.90
16801;DHT22;8518;53.236;10.384;2023-03-11T15:44:29;6.20;99.90
16801;DHT22;8518;53.236;10.384;2023-03-11T15:46:56;6.10;99.90
16801;DHT22;8518;53.236;10.384;2023-03-11T15:49:24;5.70;99.90
16801;DHT22;8518;53.236;10.384;2023-03-11T15:51:50;6.80;99.90
16801;DHT22;8518;53.236;10.384;2023-03-11T15:54:16;4.90;99.90
16801;DHT22;8518;53.236;10.384;2023-03-11T15:56:42;5.70;99.90
16801;DHT22;8518;53.236;10.384;2023-03-11T15:59:16;7.30;99.90
16801;DHT22;8518;53.236;10.384;2023-03-11T16:01:43;5.50;99.90
16801;DHT22;8518;53.236;10.384;2023-03-11T16:04:16;5.60;99.90
16801;DHT22;8518;53.236;10.384;2023-03-11T16:06:43;5.50;99.90
16801;DHT22;8518;53.236;10.384;2023-03-11T16:09:15;6.80;99.90
16801;DHT22;8518;53.236;10.384;2023-03-11T16:11:46;6.90;99.90
16801;DHT22;8518;53.236;10.384;2023-03-11T16:14:16;5.50;99.90
16801;DHT22;8518;53.236;10.384;2023-03-11T16:16:45;5.80;99.90
16801;DHT22;8518;53.236;10.384;2023-03-11T16:19:13;5.30;99.90
16801;DHT22;8518;53.236;10.384;2023-03-11T16:21:46;6.20;99.90
16801;DHT22;8518;53.236;10.384;2023-03-11T16:24:26;4.90;99.90
16801;DHT22;8518;53.236;10.384;2023-03-11T16:27:21;4.90;99.90
16801;DHT22;8518;53.236;10.384;2023-03-11T16:29:50;4.60;99.90
16801;DHT22;8518;53.236;10.384;2023-03-11T16:32:19;4.60;99.90
16801;DHT22;8518;53.236;10.384;2023-03-11T16:34:47;5.00;99.90
16801;DHT22;8518;53.236;10.384;2023-03-11T16:37:18;5.60;99.90
16801;DHT22;8518;53.236;10.384;2023-03-11T16:39:47;5.20;99.90
16801;DHT22;8518;53.236;10.384;2023-03-11T16:45:38;3.90;99.90
16801;DHT22;8518;53.236;10.384;2023-03-11T16:51:26;3.90;99.90
16801;DHT22;8518;53.236;10.384;2023-03-11T16:57:37;3.90;99.90
16801;DHT22;8518;53.236;10.384;2023-03-11T17:06:26;4.10;99.90
16801;DHT22;8518;53.236;10.384;2023-03-11T17:12:14;4.10;99.90
16801;DHT22;8518;53.236;10.384;2023-03-11T17:14:45;4.30;99.90
16801;DHT22;8518;53.236;10.384;2023-03-11T17:17:11;4.20;99.90
16801;DHT22;8518;53.236;10.384;2023-03-11T17:19:49;3.90;99.90
16801;DHT22;8518;53.236;10.384;2023-03-11T17:25:55;3.90;99.90
16801;DHT22;8518;53.236;10.384;2023-03-11T17:28:20;3.70;99.90
16801;DHT22;8518;53.236;10.384;2023-03-11T17:30:49;5.10;99.90
16801;DHT22;8518;53.236;10.384;2023-03-11T17:33:17;3.60;99.90
16801;DHT22;8518;53.236;10.384;2023-03-11T17:35:43;3.50;99.90
16801;DHT22;8518;53.236;10.384;2023-03-11T17:38:11;4.80;99.90
16801;DHT22;8518;53.236;10.384;2023-03-11T17:40:39;3.50;99.90
16801;DHT22;8518;53.236;10.384;2023-03-11T17:46:28;3.60;99.90
16801;DHT22;8518;53.236;10.384;2023-03-11T17:48:55;3.50;99.90
16801;DHT22;8518;53.236;10.384;2023-03-11T17:51:23;3.40;99.90
16801;DHT22;8518;53.236;10.384;2023-03-11T17:57:27;3.60;99.90
16801;DHT22;8518;53.236;10.384;2023-03-11T17:59:53;3.30;99.90
16801;DHT22;8518;53.236;10.384;2023-03-11T18:05:41;3.00;99.90
16801;DHT22;8518;53.236;10.384;2023-03-11T18:08:08;3.30;99.90
16801;DHT22;8518;53.236;10.384;2023-03-11T18:10:33;2.80;99.90
16801;DHT22;8518;53.236;10.384;2023-03-11T18:16:24;2.50;99.90
16801;DHT22;8518;53.236;10.384;2023-03-11T18:18:58;3.40;99.90
16801;DHT22;8518;53.236;10.384;2023-03-11T18:21:31;3.70;99.90
16801;DHT22;8518;53.236;10.384;2023-03-11T18:27:44;2.30;99.90
16801;DHT22;8518;53.236;10.384;2023-03-11T18:30:22;2.20;99.90
16801;DHT22;8518;53.236;10.384;2023-03-11T18:32:48;2.40;99.90
16801;DHT22;8518;53.236;10.384;2023-03-11T18:35:49;1.90;99.90
16801;DHT22;8518;53.236;10.384;2023-03-11T18:38:18;2.80;99.90
16801;DHT22;8518;53.236;10.384;2023-03-11T18:40:47;3.90;99.90
16801;DHT22;8518;53.236;10.384;2023-03-11T18:46:43;2.30;99.90
16801;DHT22;8518;53.236;10.384;2023-03-11T18:52:35;2.60;99.90
16801;DHT22;8518;53.236;10.384;2023-03-11T18:55:00;2.10;99.90
16801;DHT22;8518;53.236;10.384;2023-03-11T18:57:28;2.90;99.90
16801;DHT22;8518;53.236;10.384;2023-03-11T18:59:57;1.90;99.90
16801;DHT22;8518;53.236;10.384;2023-03-11T19:05:50;2.10;99.90
16801;DHT22;8518;53.236;10.384;2023-03-11T19:08:16;2.10;99.90
16801;DHT22;8518;53.236;10.384;2023-03-11T19:10:45;3.40;99.90
16801;DHT22;8518;53.236;10.384;2023-03-11T19:16:41;2.00;99.90
16801;DHT22;8518;53.236;10.384;2023-03-11T19:19:07;1.90;99.90
16801;DHT22;8518;53.236;10.384;2023-03-11T19:21:33;1.90;99.90
16801;DHT22;8518;53.236;10.384;2023-03-11T19:24:05;2.10;99.90
16801;DHT22;8518;53.236;10.384;2023-03-11T19:26:31;3.40;99.90
16801;DHT22;8518;53.236;10.384;2023-03-11T19:29:12;2.90;99.90
16801;DHT22;8518;53.236;10.384;2023-03-11T19:31:51;2.00;99.90
16801;DHT22;8518;53.236;10.384;2023-03-11T19:34:17;4.00;99.90
16801;DHT22;8518;53.236;10.384;2023-03-11T19:36:45;1.90;99.90
16801;DHT22;8518;53.236;10.384;2023-03-11T19:39:23;1.70;99.90
16801;DHT22;8518;53.236;10.384;2023-03-11T19:41:49;3.60;99.90
16801;DHT22;8518;53.236;10.384;2023-03-11T19:44:15;1.40;99.90
16801;DHT22;8518;53.236;10.384;2023-03-11T19:46:46;1.90;99.90
16801;DHT22;8518;53.236;10.384;2023-03-11T19:49:15;1.70;99.90
16801;DHT22;8518;53.236;10.384;2023-03-11T19:51:41;2.70;99.90
16801;DHT22;8518;53.236;10.384;2023-03-11T19:54:06;1.80;99.90
16801;DHT22;8518;53.236;10.384;2023-03-11T19:56:32;3.20;99.90
16801;DHT22;8518;53.236;10.384;2023-03-11T19:59:01;1.60;99.90
16801;DHT22;8518;53.236;10.384;2023-03-11T20:01:26;1.60;99.90
16801;DHT22;8518;53.236;10.384;2023-03-11T20:07:18;1.70;99.90
16801;DHT22;8518;53.236;10.384;2023-03-11T20:09:44;1.70;99.90
16801;DHT22;8518;53.236;10.384;2023-03-11T20:15:35;1.70;99.90
16801;DHT22;8518;53.236;10.384;2023-03-11T20:18:01;1.70;99.90
16801;DHT22;8518;53.236;10.384;2023-03-11T20:20:29;4.20;99.90
16801;DHT22;8518;53.236;10.384;2023-03-11T20:26:17;1.60;99.90
16801;DHT22;8518;53.236;10.384;2023-03-11T20:32:05;1.60;99.90
16801;DHT22;8518;53.236;10.384;2023-03-11T20:34:31;1.50;99.90
16801;DHT22;8518;53.236;10.384;2023-03-11T20:36:59;1.40;99.90
16801;DHT22;8518;53.236;10.384;2023-03-11T20:39:24;1.50;99.90
16801;DHT22;8518;53.236;10.384;2023-03-11T20:41:50;1.50;99.90
16801;DHT22;8518;53.236;10.384;2023-03-11T20:44:16;1.50;99.90
16801;DHT22;8518;53.236;10.384;2023-03-11T20:46:41;1.40;99.90
16801;DHT22;8518;53.236;10.384;2023-03-11T20:49:07;3.20;99.90
16801;DHT22;8518;53.236;10.384;2023-03-11T20:51:33;1.40;99.90
16801;DHT22;8518;53.236;10.384;2023-03-11T20:53:59;1.40;99.90
16801;DHT22;8518;53.236;10.384;2023-03-11T20:56:25;1.40;99.90
16801;DHT22;8518;53.236;10.384;2023-03-11T20:58:55;1.40;99.90
16801;DHT22;8518;53.236;10.384;2023-03-11T21:01:26;1.30;99.90
16801;DHT22;8518;53.236;10.384;2023-03-11T21:07:14;1.30;99.90
16801;DHT22;8518;53.236;10.384;2023-03-11T21:13:02;1.30;99.90
16801;DHT22;8518;53.236;10.384;2023-03-11T21:15:28;2.80;99.90
16801;DHT22;8518;53.236;10.384;2023-03-11T21:17:54;1.40;99.90
16801;DHT22;8518;53.236;10.384;2023-03-11T21:20:20;1.50;99.90
16801;DHT22;8518;53.236;10.384;2023-03-11T21:26:11;1.50;99.90
16801;DHT22;8518;53.236;10.384;2023-03-11T21:28:37;1.30;99.90
16801;DHT22;8518;53.236;10.384;2023-03-11T21:31:07;1.50;99.90
16801;DHT22;8518;53.236;10.384;2023-03-11T21:33:35;1.50;99.90
16801;DHT22;8518;53.236;10.384;2023-03-11T21:36:02;2.50;99.90
16801;DHT22;8518;53.236;10.384;2023-03-11T21:38:28;1.70;99.90
16801;DHT22;8518;53.236;10.384;2023-03-11T21:41:06;1.80;99.90
16801;DHT22;8518;53.236;10.384;2023-03-11T21:46:53;1.10;99.90
16801;DHT22;8518;53.236;10.384;2023-03-11T21:49:19;2.70;99.90
16801;DHT22;8518;53.236;10.384;2023-03-11T21:51:45;1.90;99.90
16801;DHT22;8518;53.236;10.384;2023-03-11T21:54:10;1.80;99.90
16801;DHT22;8518;53.236;10.384;2023-03-11T21:56:37;1.80;99.90
16801;DHT22;8518;53.236;10.384;2023-03-11T21:59:03;1.80;99.90
16801;DHT22;8518;53.236;10.384;2023-03-11T22:01:29;1.80;99.90
16801;DHT22;8518;53.236;10.384;2023-03-11T22:07:17;1.80;99.90
16801;DHT22;8518;53.236;10.384;2023-03-11T22:13:05;1.40;99.90
16801;DHT22;8518;53.236;10.384;2023-03-11T22:15:34;1.90;99.90
16801;DHT22;8518;53.236;10.384;2023-03-11T22:18:01;2.00;99.90
16801;DHT22;8518;53.236;10.384;2023-03-11T22:20:26;1.90;99.90
16801;DHT22;8518;53.236;10.384;2023-03-11T22:26:14;1.90;99.90
16801;DHT22;8518;53.236;10.384;2023-03-11T22:28:40;3.70;99.90
16801;DHT22;8518;53.236;10.384;2023-03-11T22:31:11;2.40;99.90
16801;DHT22;8518;53.236;10.384;2023-03-11T22:33:37;2.00;99.90
16801;DHT22;8518;53.236;10.384;2023-03-11T22:36:04;2.00;99.90
16801;DHT22;8518;53.236;10.384;2023-03-11T22:38:36;2.10;99.90
16801;DHT22;8518;53.236;10.384;2023-03-11T22:41:06;2.30;99.90
16801;DHT22;8518;53.236;10.384;2023-03-11T22:46:54;2.00;99.90
16801;DHT22;8518;53.236;10.384;2023-03-11T22:49:22;2.00;99.90